Disclaimer

Please do not use the information listed here in-flight or in-navigation, as they are not provided to us by the airports but are provided by volunteers, so they might be outdated.

Search


Regions


Airport information page

Radio informations:
Tower (TWR) - 118.95 MHz

Airport informations:
Latitude: 20° 37' 02.24" N
Longitude: 100° 11' 08.37" W
Elevation: 6296 feet - 1919 meters
Operating hours: Remarks
Operating agency: Civil government, landing fees and diplomatic clearance may be required
Timezone: UTC-6(-5DT) - First Sunday in April to the last Saturday in October
Fuel: N/A

Runway information:
09/27 - 11483 x 148 feet< - >3500 x 45 meters

Recent METARs:
MMQT 131341Z 14005KT 2SM BR BKN004 OVC015 13/12 A3033 RMK 8/8//
MMQT 131341Z 14005KT 2SM BR BKN004 OVC015 13/12 A3033 RMK 8/8//
MMQT 131441Z 11006KT 2SM BR BKN008 OVC015 14/11 A3036 RMK 8/5// BR

Airport on the map: